Whitcomb Heights, Indiana
Current Conditions -  °F | °C
As of 12:53 PM on Sunday 21 Dec 2014 (Local Time) from KHUF Reporting Station
Clear Clear  
Wind Chill:   Ceiling: Unl
Heat Index:   Visibility: 10mi
Dew Point: -2°   Wind: 7mph
Humidity: 73%   Direction: 140°SE
Pressure: 30.21"   Gusts: NA
Location:  39.5107°N, 87.4772°W
Report Text: KHUF 211753Z 14006KT 10SM CLR 03/M02 A3021 RMK AO2 SLP237 T00281017 10028 21044 58023
Loading
Personal Weather Stations






























Interactive Weather Map New forecast layout! Learn more

10-Day Weather Forecast

Advertisements
Track Severe Weather on mobile